Time;durP1;ratioP1;P1;durP2;ratioP2;P2;SDS_P1;SDS_P2;PMS_P1;PMS_P2;Temp;Humidity;BMP_temperature;BMP_pressure;BME280_temperature;BME280_humidity;BME280_pressure;Samples;Min_cycle;Max_cycle;Signal;HPM_P1;HPM_P2
2021/04/30 00:00:11;;;;;;;10.05;7.67;;;;;;;11.78;67.71;99067.22;1757698;81;21188;-79
2021/04/30 00:02:40;;;;;;;13.05;8.63;;;;;;;11.75;67.82;99062.94;1757786;81;20925;-80
2021/04/30 00:05:10;;;;;;;12.88;8.73;;;;;;;11.70;68.01;99066.69;1758003;79;20948;-79
2021/04/30 00:07:39;;;;;;;12.73;8.55;;;;;;;11.68;68.00;99061.28;1757949;81;21008;-82
2021/04/30 00:10:09;;;;;;;14.07;8.95;;;;;;;11.66;68.13;99067.12;1757784;80;21196;-82
2021/04/30 00:12:38;;;;;;;18.07;9.50;;;;;;;11.65;68.17;99069.63;1757653;79;21071;-80
2021/04/30 00:15:07;;;;;;;12.13;8.85;;;;;;;11.65;68.28;99063.33;1758107;80;21471;-81
2021/04/30 00:17:35;;;;;;;15.32;8.48;;;;;;;11.65;68.32;99056.45;1758053;80;20960;-82
2021/04/30 00:20:04;;;;;;;10.82;8.38;;;;;;;11.64;68.47;99058.40;1758107;81;21126;-85
2021/04/30 00:22:31;;;;;;;13.25;9.53;;;;;;;11.63;68.47;99052.66;1757702;81;21511;-83
2021/04/30 00:25:00;;;;;;;10.90;8.05;;;;;;;11.62;68.52;99051.05;1758026;81;20988;-85
2021/04/30 00:27:27;;;;;;;17.17;8.90;;;;;;;11.61;68.58;99050.82;1757884;81;21087;-84
2021/04/30 00:29:56;;;;;;;12.03;8.00;;;;;;;11.61;68.52;99052.77;1737041;82;20930;-80
2021/04/30 00:32:24;;;;;;;13.35;8.03;;;;;;;11.60;68.51;99050.59;1737052;82;21092;-81
2021/04/30 00:34:52;;;;;;;12.68;8.73;;;;;;;11.61;68.69;99047.27;1737053;82;21378;-84
2021/04/30 00:37:20;;;;;;;14.40;8.25;;;;;;;11.57;68.68;99043.00;1736960;82;21017;-83
2021/04/30 00:39:48;;;;;;;10.32;7.78;;;;;;;11.54;68.76;99040.95;1737031;82;21067;-78
2021/04/30 00:42:16;;;;;;;12.35;8.30;;;;;;;11.50;68.94;99040.02;1736950;82;21684;-80
2021/04/30 00:44:45;;;;;;;13.85;9.00;;;;;;;11.47;69.09;99043.43;1737075;82;20934;-79
2021/04/30 00:47:31;;;;;;;14.68;8.83;;;;;;;11.43;69.30;99042.48;1737002;82;21375;-80
2021/04/30 00:50:04;;;;;;;11.40;7.42;;;;;;;11.41;69.41;99039.27;1750187;81;21067;-84
2021/04/30 00:52:32;;;;;;;11.60;8.38;;;;;;;11.37;69.42;99039.69;1729646;82;21547;-86
2021/04/30 00:55:00;;;;;;;12.88;8.53;;;;;;;11.34;69.56;99041.16;1731264;82;21571;-86
2021/04/30 00:57:29;;;;;;;10.95;8.05;;;;;;;11.31;69.63;99035.53;1693610;83;21184;-87
2021/04/30 00:59:58;;;;;;;17.90;9.13;;;;;;;11.28;69.93;99034.81;1731324;82;22308;-76
2021/04/30 01:02:26;;;;;;;11.73;8.00;;;;;;;11.26;69.95;99035.15;1730273;83;21489;-78
2021/04/30 01:04:54;;;;;;;11.45;8.88;;;;;;;11.24;70.10;99026.44;1731297;83;20950;-84
2021/04/30 01:07:21;;;;;;;16.10;8.30;;;;;;;11.21;70.29;99033.40;1724626;83;21149;-83
2021/04/30 01:09:49;;;;;;;12.80;8.28;;;;;;;11.20;70.25;99022.17;1702053;84;21673;-83
2021/04/30 01:12:18;;;;;;;12.73;7.25;;;;;;;11.20;70.24;99026.29;1701558;83;21446;-85
2021/04/30 01:14:47;;;;;;;14.38;7.80;;;;;;;11.18;70.36;99028.56;1734371;81;21098;-84
2021/04/30 01:17:15;;;;;;;16.23;8.33;;;;;;;11.15;70.47;99023.73;1736349;81;21169;-83
2021/04/30 01:19:43;;;;;;;16.85;9.35;;;;;;;11.15;70.40;99025.11;1725008;83;21141;-83
2021/04/30 01:22:11;;;;;;;12.30;8.50;;;;;;;11.14;70.41;99019.38;1695523;83;21165;-84
2021/04/30 01:24:38;;;;;;;14.85;8.00;;;;;;;11.14;70.41;99019.38;1730258;81;21840;-84
2021/04/30 01:27:06;;;;;;;11.12;7.28;;;;;;;11.15;70.43;99017.44;1757716;80;21491;-87
2021/04/30 01:29:33;;;;;;;14.18;7.45;;;;;;;11.14;70.50;99013.88;1757823;81;20976;-87
2021/04/30 01:32:01;;;;;;;14.47;8.35;;;;;;;11.13;70.52;99012.84;1757627;81;21186;-85
2021/04/30 01:34:30;;;;;;;12.47;8.18;;;;;;;11.13;70.53;99015.59;1757796;80;21154;-85
2021/04/30 01:36:58;;;;;;;17.90;8.83;;;;;;;11.13;70.49;99005.97;1757797;81;21387;-85
2021/04/30 01:39:26;;;;;;;13.48;7.40;;;;;;;11.12;70.51;99001.05;1757714;80;20936;-85
2021/04/30 01:41:54;;;;;;;18.92;7.97;;;;;;;11.11;70.62;98995.88;1757749;81;21079;-87
2021/04/30 01:44:22;;;;;;;13.03;8.38;;;;;;;11.09;70.59;98990.72;1757768;81;21134;-86
2021/04/30 01:46:49;;;;;;;13.58;8.40;;;;;;;11.07;70.66;98986.13;1757938;81;21067;-86
2021/04/30 01:49:19;;;;;;;24.35;8.13;;;;;;;11.05;70.68;98982.11;1758044;80;21189;-80
2021/04/30 01:51:46;;;;;;;16.05;8.10;;;;;;;11.02;70.75;98978.08;1757826;81;20961;-81
2021/04/30 01:54:14;;;;;;;12.85;7.22;;;;;;;11.01;70.88;98972.92;1757902;81;21440;-80
2021/04/30 01:56:42;;;;;;;17.85;8.45;;;;;;;10.97;71.00;98970.06;1757895;81;21107;-81
2021/04/30 01:59:09;;;;;;;19.07;8.18;;;;;;;10.94;70.96;98974.84;1757881;81;21162;-87
2021/04/30 02:01:37;;;;;;;12.88;7.25;;;;;;;10.91;71.07;98975.51;1757921;80;22150;-85
2021/04/30 02:04:08;;;;;;;9.68;6.72;;;;;;;10.88;71.14;98975.60;1757828;81;20960;-85
2021/04/30 02:06:35;;;;;;;9.30;6.70;;;;;;;10.85;71.20;98977.64;1757901;81;20936;-81
2021/04/30 02:09:04;;;;;;;12.15;7.28;;;;;;;10.82;71.23;98980.23;1757879;81;21012;-82
2021/04/30 02:11:35;;;;;;;11.68;7.10;;;;;;;10.78;71.24;98977.91;1757920;79;21122;-82
2021/04/30 02:14:04;;;;;;;18.32;7.58;;;;;;;10.74;71.46;98977.77;1757601;81;21391;-82
2021/04/30 02:16:32;;;;;;;12.68;7.40;;;;;;;10.70;71.43;98984.25;1757925;81;21582;-82
2021/04/30 02:19:02;;;;;;;10.20;7.10;;;;;;;10.65;71.43;98982.50;1757967;81;20980;-82
2021/04/30 02:21:30;;;;;;;14.47;7.58;;;;;;;10.61;71.69;98980.73;1757879;81;21027;-86
2021/04/30 02:23:58;;;;;;;12.25;7.90;;;;;;;10.55;71.74;98982.29;1757879;81;21063;-81
2021/04/30 02:26:28;;;;;;;11.95;7.53;;;;;;;10.51;72.00;98983.28;1757874;81;21211;-83
2021/04/30 02:28:56;;;;;;;12.00;7.25;;;;;;;10.47;72.04;98989.98;1757862;81;20957;-82
2021/04/30 02:31:23;;;;;;;9.78;7.33;;;;;;;10.45;72.23;98990.08;1757875;81;20936;-87
2021/04/30 02:33:51;;;;;;;10.78;7.20;;;;;;;10.42;72.43;98994.84;1757799;80;21191;-85
2021/04/30 02:36:19;;;;;;;15.55;7.08;;;;;;;10.37;72.50;98987.63;1757875;81;21198;-86
2021/04/30 02:38:47;;;;;;;15.80;7.75;;;;;;;10.35;72.77;98989.89;1757844;81;21403;-85
2021/04/30 02:41:14;;;;;;;11.05;7.17;;;;;;;10.31;72.79;98992.25;1757894;81;20977;-86
2021/04/30 02:43:42;;;;;;;11.60;7.45;;;;;;;10.28;72.83;98996.45;1757795;80;21504;-86
2021/04/30 02:46:10;;;;;;;14.78;7.28;;;;;;;10.25;73.06;98989.68;1757845;81;21020;-85
2021/04/30 02:48:40;;;;;;;12.88;7.05;;;;;;;10.24;73.15;98990.01;1758032;81;21464;-85
2021/04/30 02:51:10;;;;;;;11.20;7.53;;;;;;;10.25;73.34;98992.98;1757967;81;21350;-85
2021/04/30 02:53:37;;;;;;;18.98;7.20;;;;;;;10.25;73.27;98983.39;1757744;81;21051;-84
2021/04/30 02:56:05;;;;;;;14.90;7.95;;;;;;;10.27;73.30;98976.20;1757880;81;21062;-85
2021/04/30 02:58:33;;;;;;;12.88;7.50;;;;;;;10.28;73.27;98981.36;1757871;80;20993;-85
2021/04/30 03:01:01;;;;;;;14.63;7.53;;;;;;;10.30;73.25;98981.03;1757910;81;21003;-85
2021/04/30 03:03:29;;;;;;;15.08;7.53;;;;;;;10.31;73.27;98982.08;1757938;81;21610;-85
2021/04/30 03:05:57;;;;;;;14.65;8.50;;;;;;;10.33;73.19;98982.56;1757822;81;20960;-82
2021/04/30 03:08:25;;;;;;;13.55;8.15;;;;;;;10.36;73.13;98977.78;1757903;81;20937;-82
2021/04/30 03:10:53;;;;;;;11.93;7.03;;;;;;;10.38;73.06;98975.52;1755312;81;20996;-84
2021/04/30 03:13:20;;;;;;;15.63;7.35;;;;;;;10.43;72.89;98982.17;1763005;80;21076;-80
2021/04/30 03:15:48;;;;;;;9.13;6.30;;;;;;;10.46;72.77;98987.01;1764890;81;21202;-87
2021/04/30 03:18:16;;;;;;;12.53;6.12;;;;;;;10.51;72.47;98984.65;1764835;81;21471;-81
2021/04/30 03:20:44;;;;;;;9.93;6.58;;;;;;;10.54;72.21;98986.73;1764912;81;20986;-79
2021/04/30 03:23:12;;;;;;;11.28;5.90;;;;;;;10.58;72.16;98993.98;1764987;81;21023;-80
2021/04/30 03:25:40;;;;;;;12.82;6.72;;;;;;;10.62;71.94;98986.47;1764918;81;21043;-82
2021/04/30 03:28:08;;;;;;;12.03;6.75;;;;;;;10.64;71.78;98981.45;1760287;80;21209;-79
2021/04/30 03:30:36;;;;;;;8.93;5.55;;;;;;;10.67;71.39;98989.83;1757831;81;20960;-79
2021/04/30 03:33:04;;;;;;;11.53;5.92;;;;;;;10.70;71.01;98987.00;1757866;81;21059;-79
2021/04/30 03:35:32;;;;;;;9.70;5.97;;;;;;;10.74;70.87;98988.75;1757856;81;20956;-78
2021/04/30 03:38:02;;;;;;;20.65;6.58;;;;;;;10.77;70.42;98988.66;1757938;81;21197;-79
2021/04/30 03:40:29;;;;;;;11.50;5.92;;;;;;;10.81;70.11;98986.87;1757872;81;21381;-80
2021/04/30 03:42:58;;;;;;;7.40;5.08;;;;;;;10.85;69.78;98982.33;1757925;81;21099;-77
2021/04/30 03:45:26;;;;;;;7.42;5.65;;;;;;;10.90;69.62;98985.69;1757850;81;21055;-76
2021/04/30 03:47:54;;;;;;;7.85;5.50;;;;;;;10.97;68.81;98988.48;1757851;81;21498;-83
2021/04/30 03:50:22;;;;;;;8.08;5.40;;;;;;;11.01;68.29;98980.59;1757883;81;21123;-83
2021/04/30 03:52:50;;;;;;;13.20;5.47;;;;;;;11.06;68.20;98979.03;1757827;81;21350;-79
2021/04/30 03:55:18;;;;;;;8.65;5.60;;;;;;;11.10;67.59;98979.17;1757816;81;21050;-79
2021/04/30 03:57:45;;;;;;;9.05;5.22;;;;;;;11.14;67.25;98980.92;1757820;81;21060;-80
2021/04/30 04:00:15;;;;;;;9.93;5.47;;;;;;;11.16;66.70;98981.39;1757788;80;21150;-81
2021/04/30 04:02:44;;;;;;;12.07;5.70;;;;;;;11.18;66.63;98972.25;1757898;81;21138;-82
2021/04/30 04:05:12;;;;;;;7.00;4.62;;;;;;;11.18;66.59;98979.69;1757841;80;21585;-82
2021/04/30 04:07:40;;;;;;;10.85;5.45;;;;;;;11.18;66.33;98972.81;1757825;80;21565;-81
2021/04/30 04:10:10;;;;;;;11.35;4.95;;;;;;;11.15;66.15;98978.41;1757850;81;21059;-81
2021/04/30 04:12:37;;;;;;;6.12;4.83;;;;;;;11.13;66.39;98982.05;1760956;81;21102;-86
2021/04/30 04:15:06;;;;;;;7.30;5.22;;;;;;;11.13;66.12;98978.50;1735319;81;21064;-84
2021/04/30 04:17:35;;;;;;;8.55;5.25;;;;;;;11.12;66.17;98981.81;1764926;81;21361;-81
2021/04/30 04:20:05;;;;;;;7.40;5.03;;;;;;;11.07;65.95;98976.52;1764815;81;20996;-80
2021/04/30 04:22:32;;;;;;;10.55;6.17;;;;;;;11.05;66.27;98974.67;1764854;81;20996;-82
2021/04/30 04:25:00;;;;;;;11.85;5.12;;;;;;;11.04;66.41;98977.75;1764801;80;21008;-84
2021/04/30 04:27:28;;;;;;;8.28;5.87;;;;;;;11.07;66.42;98990.25;1764879;81;21075;-84
2021/04/30 04:29:57;;;;;;;12.95;6.40;;;;;;;11.10;66.43;98989.59;1764869;81;21201;-82
2021/04/30 04:32:24;;;;;;;10.48;6.08;;;;;;;11.14;66.38;98984.23;1764778;81;20921;-84
2021/04/30 04:34:52;;;;;;;10.78;5.65;;;;;;;11.16;66.16;98982.77;1764839;81;21111;-81
2021/04/30 04:37:20;;;;;;;17.57;6.53;;;;;;;11.21;66.19;98981.20;1764803;81;21135;-84
2021/04/30 04:39:48;;;;;;;13.35;6.03;;;;;;;11.31;66.28;98977.83;1764832;81;21063;-79
2021/04/30 04:42:15;;;;;;;9.50;5.70;;;;;;;11.37;65.71;98984.16;1764826;81;21260;-84
2021/04/30 04:44:43;;;;;;;9.95;6.03;;;;;;;11.39;65.65;98984.63;1764744;80;20988;-82
2021/04/30 04:47:12;;;;;;;9.73;6.28;;;;;;;11.36;65.54;98977.06;1764833;81;21054;-79
2021/04/30 04:49:40;;;;;;;12.33;6.72;;;;;;;11.33;65.75;98971.42;1764791;81;21190;-81
2021/04/30 04:52:12;;;;;;;9.68;6.30;;;;;;;11.28;65.95;98972.99;1764794;81;20948;-80
2021/04/30 04:54:40;;;;;;;11.28;6.28;;;;;;;11.20;65.99;98971.34;1764821;81;21379;-85
2021/04/30 04:57:09;;;;;;;11.43;6.20;;;;;;;11.17;66.29;98978.88;1764792;81;21190;-87
2021/04/30 04:59:37;;;;;;;18.12;6.65;;;;;;;11.14;66.34;98976.80;1764834;81;21052;-87
2021/04/30 05:02:05;;;;;;;14.28;7.20;;;;;;;11.12;66.46;98976.33;1764899;81;20944;-89
2021/04/30 05:04:33;;;;;;;11.33;7.10;;;;;;;11.11;66.65;98970.59;1764835;81;21138;-78
2021/04/30 05:07:00;;;;;;;11.12;6.72;;;;;;;11.15;66.77;98967.42;1764853;81;22373;-79
2021/04/30 05:09:29;;;;;;;13.38;6.62;;;;;;;11.21;66.35;98961.97;1764839;81;21503;-80
2021/04/30 05:11:57;;;;;;;19.10;7.15;;;;;;;11.25;66.14;98966.22;1764778;81;21022;-78
2021/04/30 05:14:25;;;;;;;14.13;6.12;;;;;;;11.28;66.44;98964.75;1764373;80;21071;-80
2021/04/30 05:16:54;;;;;;;14.00;6.83;;;;;;;11.36;66.34;98970.19;1762242;81;20953;-82
2021/04/30 05:19:22;;;;;;;15.75;6.20;;;;;;;11.45;65.87;98961.88;1764990;81;21391;-81
2021/04/30 05:21:50;;;;;;;14.75;6.50;;;;;;;11.52;65.90;98964.89;1764975;81;20968;-83
2021/04/30 05:24:18;;;;;;;10.60;5.62;;;;;;;11.61;65.96;98962.05;1764985;81;21491;-82
2021/04/30 05:26:45;;;;;;;10.53;6.00;;;;;;;11.70;65.65;98966.33;1764980;81;20956;-79
2021/04/30 05:29:15;;;;;;;12.18;6.30;;;;;;;11.78;65.58;98958.61;1765021;81;21531;-79
2021/04/30 05:31:42;;;;;;;13.53;6.53;;;;;;;11.84;65.64;98962.75;1765047;81;21129;-79
2021/04/30 05:34:10;;;;;;;10.50;5.55;;;;;;;11.94;65.64;98970.35;1734971;81;21143;-77
2021/04/30 05:36:39;;;;;;;13.05;5.67;;;;;;;11.99;65.02;98971.52;1759875;81;21134;-78
2021/04/30 05:39:07;;;;;;;11.05;5.92;;;;;;;12.00;65.10;98962.13;1764856;81;21091;-82
2021/04/30 05:41:34;;;;;;;9.58;6.12;;;;;;;12.00;64.87;98966.25;1765044;81;21055;-73
2021/04/30 05:44:04;;;;;;;12.25;6.58;;;;;;;12.01;65.17;98963.16;1764837;81;21379;-67
2021/04/30 05:46:31;;;;;;;12.88;6.55;;;;;;;12.06;64.81;98959.39;1764849;81;22340;-70
2021/04/30 05:49:01;;;;;;;8.83;5.50;;;;;;;12.07;65.15;98956.87;1765035;81;21020;-74
2021/04/30 05:51:31;;;;;;;11.70;6.08;;;;;;;12.11;65.16;98957.80;1764858;81;21142;-71
2021/04/30 05:53:59;;;;;;;10.40;6.22;;;;;;;12.14;65.52;98949.64;1764923;81;21052;-72
2021/04/30 05:56:29;;;;;;;10.58;6.60;;;;;;;12.21;65.67;98954.02;1764855;81;21370;-72
2021/04/30 05:58:58;;;;;;;13.62;6.65;;;;;;;12.33;65.64;98954.61;1764813;81;21083;-73
2021/04/30 06:01:27;;;;;;;10.40;6.67;;;;;;;12.48;65.52;98964.96;1764902;81;20925;-71
2021/04/30 06:03:55;;;;;;;11.85;6.45;;;;;;;12.61;65.04;98962.23;1764929;81;21060;-65
2021/04/30 06:06:22;;;;;;;10.30;6.42;;;;;;;12.72;65.46;98962.78;1755783;81;21111;-69
2021/04/30 06:08:50;;;;;;;10.98;6.53;;;;;;;12.88;64.84;98954.63;1724086;83;21199;-63
2021/04/30 06:11:19;;;;;;;13.18;7.70;;;;;;;12.99;64.36;98955.77;1752302;81;20933;-66
2021/04/30 06:13:47;;;;;;;12.65;6.58;;;;;;;13.07;63.96;98949.91;1764748;79;21079;-69
2021/04/30 06:16:15;;;;;;;25.12;7.65;;;;;;;13.11;64.32;98946.69;1764880;80;21510;-69
2021/04/30 06:18:44;;;;;;;11.30;7.40;;;;;;;13.19;64.63;98942.46;1764947;81;20992;-69
2021/04/30 06:21:12;;;;;;;9.00;6.12;;;;;;;13.29;64.08;98940.34;1764768;81;21433;-72
2021/04/30 06:23:40;;;;;;;12.30;7.00;;;;;;;13.42;63.98;98952.95;1751201;81;21162;-64
2021/04/30 06:26:08;;;;;;;11.00;7.33;;;;;;;13.52;63.64;98942.23;1750261;81;21155;-64
2021/04/30 06:28:36;;;;;;;11.48;6.17;;;;;;;13.64;63.16;98943.34;1748456;81;21139;-64
2021/04/30 06:31:04;;;;;;;12.65;5.97;;;;;;;13.77;63.44;98944.33;1751494;81;22554;-65
2021/04/30 06:33:32;;;;;;;9.73;6.00;;;;;;;13.97;63.38;98937.55;1751323;81;21516;-65
2021/04/30 06:35:59;;;;;;;12.33;6.37;;;;;;;14.13;61.73;98940.56;1748239;81;21142;-65
2021/04/30 06:38:28;;;;;;;9.25;6.50;;;;;;;14.19;61.64;98942.48;1750507;81;21131;-65
2021/04/30 06:40:57;;;;;;;11.28;6.70;;;;;;;14.28;62.03;98943.13;1748983;81;21115;-63
2021/04/30 06:43:26;;;;;;;9.78;6.30;;;;;;;14.37;62.32;98940.20;1747612;81;21158;-63
2021/04/30 06:45:53;;;;;;;8.33;6.20;;;;;;;14.41;62.14;98946.06;1749896;81;21566;-63
2021/04/30 06:48:21;;;;;;;9.60;6.00;;;;;;;14.44;61.68;98939.03;1748660;81;21201;-63
2021/04/30 06:50:51;;;;;;;12.13;6.83;;;;;;;14.45;61.61;98938.64;1719588;82;21033;-63
2021/04/30 06:53:19;;;;;;;11.33;6.87;;;;;;;14.45;62.24;98938.64;1705305;83;21234;-62
2021/04/30 06:55:47;;;;;;;10.35;6.80;;;;;;;14.52;62.01;98943.55;1747552;80;21107;-63
2021/04/30 06:58:15;;;;;;;14.43;7.20;;;;;;;14.60;61.73;98944.53;1749623;81;21314;-63
2021/04/30 07:00:43;;;;;;;12.30;6.25;;;;;;;14.69;62.42;98940.42;1750208;80;21047;-62
2021/04/30 07:03:10;;;;;;;9.05;6.33;;;;;;;14.86;61.71;98940.64;1747702;81;21159;-63
2021/04/30 07:05:40;;;;;;;14.30;6.83;;;;;;;14.96;60.88;98933.17;1748643;81;21142;-62
2021/04/30 07:08:08;;;;;;;10.13;6.33;;;;;;;15.04;61.04;98939.64;1750722;81;21549;-64
2021/04/30 07:10:39;;;;;;;12.47;7.12;;;;;;;15.13;60.56;98938.87;1749436;81;21363;-63
2021/04/30 07:13:16;;;;;;;8.80;6.08;;;;;;;15.22;60.88;98934.52;1749433;79;21134;-63
2021/04/30 07:15:44;;;;;;;18.02;6.53;;;;;;;15.31;60.17;98933.16;1762592;80;21219;-63
2021/04/30 07:18:12;;;;;;;10.13;6.60;;;;;;;15.38;60.55;98932.51;1716946;83;21137;-62
2021/04/30 07:20:41;;;;;;;9.23;6.20;;;;;;;15.51;60.65;98923.72;1701011;83;21537;-64
2021/04/30 07:23:09;;;;;;;9.85;7.15;;;;;;;15.68;60.31;98921.09;1705615;83;22072;-63
2021/04/30 07:25:38;;;;;;;9.98;6.80;;;;;;;15.85;59.51;98933.69;1710783;83;21077;-63
2021/04/30 07:28:06;;;;;;;11.57;7.17;;;;;;;16.01;59.60;98918.37;1706237;83;21109;-63
2021/04/30 07:30:34;;;;;;;14.40;7.25;;;;;;;16.22;59.01;98924.86;1700947;83;21189;-64
2021/04/30 07:33:02;;;;;;;8.45;6.15;;;;;;;16.34;58.01;98901.95;1709530;83;21126;-63
2021/04/30 07:35:31;;;;;;;17.02;6.75;;;;;;;16.44;57.25;98924.08;1699300;83;21380;-63
2021/04/30 07:38:00;;;;;;;9.38;6.75;;;;;;;16.51;57.43;98918.66;1712420;83;21936;-64
2021/04/30 07:40:29;;;;;;;8.80;6.53;;;;;;;16.63;57.40;98919.05;1685493;83;21088;-63
2021/04/30 07:42:58;;;;;;;12.35;6.53;;;;;;;16.71;56.47;98926.34;1717168;83;21084;-63
2021/04/30 07:45:26;;;;;;;10.65;6.65;;;;;;;16.64;56.60;98922.88;1721839;82;21007;-66
2021/04/30 07:47:57;;;;;;;9.58;6.15;;;;;;;16.52;56.80;98917.48;1721347;83;21217;-68
2021/04/30 07:50:25;;;;;;;10.90;6.78;;;;;;;16.33;57.24;98916.97;1721656;83;20954;-69
2021/04/30 07:52:53;;;;;;;12.05;6.12;;;;;;;16.23;57.70;98912.63;1721687;83;21597;-67
2021/04/30 07:55:21;;;;;;;10.05;5.92;;;;;;;16.36;58.11;98914.05;1696464;83;21431;-67
2021/04/30 07:57:48;;;;;;;13.15;7.60;;;;;;;16.68;56.50;98914.62;1741795;81;21001;-65
2021/04/30 08:00:18;;;;;;;10.80;6.50;;;;;;;16.94;56.38;98906.28;1760989;81;21084;-63
2021/04/30 08:02:48;;;;;;;13.90;6.72;;;;;;;17.10;55.78;98908.31;1761321;81;21126;-62
2021/04/30 08:05:16;;;;;;;11.53;6.47;;;;;;;17.06;55.34;98905.27;1761423;81;21485;-63
2021/04/30 08:07:45;;;;;;;12.88;6.45;;;;;;;16.94;55.61;98896.58;1761302;81;21517;-63
2021/04/30 08:10:12;;;;;;;9.53;6.15;;;;;;;17.08;56.07;98892.63;1760375;81;21546;-63
2021/04/30 08:12:40;;;;;;;18.37;6.03;;;;;;;17.44;55.95;98893.09;1732447;81;22263;-64
2021/04/30 08:15:11;;;;;;;10.68;5.80;;;;;;;17.95;54.75;98886.95;1698299;84;21151;-64
2021/04/30 08:17:39;;;;;;;9.38;6.17;;;;;;;18.41;52.41;98874.90;1684985;85;21076;-64
2021/04/30 08:20:08;;;;;;;11.00;5.90;;;;;;;18.68;52.71;98873.53;1684876;84;21072;-62
2021/04/30 08:22:36;;;;;;;12.05;5.97;;;;;;;18.97;50.87;98875.13;1684875;85;21203;-62
2021/04/30 08:25:05;;;;;;;11.30;6.22;;;;;;;19.12;50.69;98869.82;1684963;85;21553;-63
2021/04/30 08:27:33;;;;;;;12.85;5.85;;;;;;;19.32;50.80;98873.11;1684827;85;21045;-63
2021/04/30 08:30:01;;;;;;;9.28;6.17;;;;;;;19.48;49.67;98863.84;1684922;84;21147;-62
2021/04/30 08:32:28;;;;;;;9.88;5.42;;;;;;;19.63;49.12;98866.91;1686784;83;21525;-63
2021/04/30 08:34:57;;;;;;;7.67;5.83;;;;;;;19.68;48.91;98865.11;1704663;83;21144;-62
2021/04/30 08:37:25;;;;;;;9.58;5.80;;;;;;;19.83;48.79;98865.16;1713478;83;21399;-63
2021/04/30 08:39:53;;;;;;;9.50;5.67;;;;;;;19.97;47.62;98864.59;1713432;83;21616;-62
2021/04/30 08:42:20;;;;;;;8.35;5.60;;;;;;;19.93;48.98;98863.00;1713496;83;21045;-63
2021/04/30 08:44:48;;;;;;;10.78;6.05;;;;;;;19.92;48.75;98857.22;1713458;83;21078;-63
2021/04/30 08:47:17;;;;;;;10.98;6.22;;;;;;;20.06;47.88;98862.23;1713485;83;21081;-63
2021/04/30 08:49:46;;;;;;;12.70;6.55;;;;;;;20.19;47.62;98867.42;1711396;83;21211;-64
2021/04/30 08:52:17;;;;;;;11.28;5.55;;;;;;;20.29;48.26;98864.62;1704762;83;21093;-65
2021/04/30 08:54:49;;;;;;;9.38;5.70;;;;;;;20.60;47.34;98856.09;1713584;83;21485;-65
2021/04/30 08:57:21;;;;;;;11.83;6.80;;;;;;;20.60;47.34;98856.09;1712852;83;22271;-65
2021/04/30 08:59:46;;;;;;;10.55;5.53;;;;;;;20.85;46.31;98863.02;1710910;83;21133;-65
2021/04/30 09:02:14;;;;;;;10.78;5.75;;;;;;;21.02;45.96;98868.38;1696343;83;21211;-65
2021/04/30 09:04:43;;;;;;;22.30;6.20;;;;;;;21.18;44.72;98862.35;1712114;83;21232;-65
2021/04/30 09:07:14;;;;;;;12.20;5.95;;;;;;;21.25;44.97;98865.16;1713259;83;21608;-64
2021/04/30 09:10:01;;;;;;;12.30;6.08;;;;;;;21.38;45.01;98869.07;1713246;83;21569;-66
2021/04/30 09:12:29;;;;;;;7.62;5.72;;;;;;;21.53;44.27;98868.42;1713293;83;21516;-68
2021/04/30 09:14:58;;;;;;;13.55;6.28;;;;;;;21.73;44.34;98866.73;1713136;83;23521;-65
2021/04/30 09:17:27;;;;;;;7.90;5.60;;;;;;;21.81;44.05;98870.28;1699106;83;21073;-65
2021/04/30 09:20:02;;;;;;;10.30;5.53;;;;;;;21.75;43.50;98865.73;1707865;83;21058;-66
2021/04/30 09:25:18;;;;;;;10.53;4.90;;;;;;;21.68;44.47;98854.59;1888631;76;22724;-64
2021/04/30 09:27:48;;;;;;;7.78;5.28;;;;;;;21.83;43.29;98858.90;1849996;77;21539;-65
2021/04/30 09:30:27;;;;;;;9.83;5.03;;;;;;;22.00;42.83;98855.78;1850055;77;22308;-66
2021/04/30 09:33:14;;;;;;;8.48;5.37;;;;;;;22.15;43.85;98848.13;1849425;77;20982;-66
2021/04/30 09:35:45;;;;;;;23.02;6.00;;;;;;;22.26;42.57;98850.25;1834051;77;21173;-65
2021/04/30 09:38:32;;;;;;;12.80;5.60;;;;;;;22.12;43.06;98845.55;1822528;77;21121;-64
2021/04/30 09:41:08;;;;;;;12.93;5.92;;;;;;;21.68;43.02;98857.37;1834996;77;21469;-64
2021/04/30 09:43:50;;;;;;;10.82;5.62;;;;;;;21.18;44.99;98845.61;1832167;77;22125;-65
2021/04/30 09:46:31;;;;;;;7.92;5.17;;;;;;;20.94;45.10;98841.08;1850040;77;20919;-64
2021/04/30 09:49:08;;;;;;;12.20;5.55;;;;;;;20.84;45.79;98839.11;1849952;77;21441;-64
2021/04/30 09:51:47;;;;;;;9.35;4.65;;;;;;;21.10;45.50;98837.25;1849946;77;21556;-64
2021/04/30 09:54:26;;;;;;;10.70;4.95;;;;;;;21.56;44.44;98839.68;1849929;77;20970;-65
2021/04/30 09:57:26;;;;;;;10.55;4.40;;;;;;;22.12;43.21;98829.38;1849926;77;21555;-65
2021/04/30 10:00:08;;;;;;;8.00;5.20;;;;;;;22.56;42.68;98831.40;1849370;77;21045;-67
2021/04/30 10:02:46;;;;;;;8.13;4.65;;;;;;;22.87;40.71;98824.73;1850091;77;20974;-66
2021/04/30 10:05:21;;;;;;;9.73;5.65;;;;;;;22.55;41.27;98822.81;1849861;77;21017;-68
2021/04/30 10:07:50;;;;;;;9.38;4.67;;;;;;;22.15;41.57;98816.78;1846316;77;20930;-67
2021/04/30 10:10:22;;;;;;;12.75;5.70;;;;;;;21.70;42.52;98830.63;1849840;77;21193;-68
2021/04/30 10:12:55;;;;;;;;;;;;;;;21.45;43.65;98817.99;1834099;77;20900;-68
2021/04/30 10:15:24;;;;;;;8.93;5.03;;;;;;;21.58;42.92;98824.71;1815055;79;20235;-67
2021/04/30 10:17:59;;;;;;;9.60;4.80;;;;;;;21.89;42.19;98818.75;1814868;79;21496;-66
2021/04/30 10:20:27;;;;;;;20.75;4.50;;;;;;;22.04;42.64;98808.47;1814886;79;21104;-67
2021/04/30 10:22:57;;;;;;;9.35;4.25;;;;;;;;;;1814844;79;21528;-67
2021/04/30 10:25:26;;;;;;;11.88;5.05;;;;;;;22.49;41.23;98791.73;1817388;79;20997;-70
2021/04/30 10:27:56;;;;;;;16.85;4.55;;;;;;;22.57;40.80;98794.63;1843802;77;21584;-67
2021/04/30 10:30:41;;;;;;;14.43;5.08;;;;;;;22.63;40.67;98789.37;1847360;77;21037;-65
2021/04/30 10:33:32;;;;;;;12.53;4.65;;;;;;;22.71;40.77;98795.09;1841914;77;21065;-66
2021/04/30 10:36:13;;;;;;;8.68;3.92;;;;;;;22.72;40.67;98796.68;1828072;77;22238;-65
2021/04/30 10:38:54;;;;;;;6.65;3.83;;;;;;;22.55;40.71;98785.06;1794272;78;21558;-66
2021/04/30 10:44:32;;;;;;;7.37;4.87;;;;;;;22.26;41.93;98797.92;1886276;74;22708;-66
2021/04/30 10:47:15;;;;;;;14.43;5.08;;;;;;;22.13;42.05;98803.81;1840288;77;21070;-64
2021/04/30 10:49:44;;;;;;;10.60;4.08;;;;;;;21.98;42.57;98802.30;1838420;77;21407;-65
2021/04/30 10:52:22;;;;;;;13.90;5.12;;;;;;;21.88;42.62;98792.81;1840183;77;21179;-65
2021/04/30 10:55:08;;;;;;;8.45;4.78;;;;;;;21.86;43.24;98794.42;1764800;80;20974;-62
2021/04/30 10:57:53;;;;;;;11.22;5.08;;;;;;;21.95;42.22;98789.94;1840696;77;20986;-66
2021/04/30 11:00:36;;;;;;;5.95;4.28;;;;;;;22.08;43.66;98777.70;1843404;77;20915;-63
2021/04/30 11:03:20;;;;;;;8.93;4.25;;;;;;;22.24;41.44;98783.56;1835968;76;22375;-65
2021/04/30 11:06:01;;;;;;;7.97;4.67;;;;;;;22.21;41.70;98790.58;1842691;77;21580;-65
2021/04/30 11:08:52;;;;;;;8.78;4.87;;;;;;;22.10;41.88;98783.67;1764936;80;21002;-67
2021/04/30 11:11:32;;;;;;;12.73;4.50;;;;;;;22.01;42.30;98776.33;1836395;76;21025;-65
2021/04/30 11:14:31;;;;;;;13.43;5.00;;;;;;;21.93;43.18;98774.22;1839520;77;21478;-65
2021/04/30 11:17:00;;;;;;;6.40;4.20;;;;;;;21.91;42.95;98771.04;1805336;79;21318;-65
2021/04/30 11:19:30;;;;;;;7.60;4.03;;;;;;;21.86;41.80;98770.08;1806857;79;20996;-65
2021/04/30 11:22:13;;;;;;;8.35;4.65;;;;;;;21.70;42.34;98768.39;1804315;79;21010;-65
2021/04/30 11:24:43;;;;;;;10.63;6.67;;;;;;;21.58;43.00;98771.66;1816828;79;20926;-64
2021/04/30 11:27:25;;;;;;;9.88;4.78;;;;;;;21.59;43.74;98771.84;1814655;78;21565;-66
2021/04/30 11:29:55;;;;;;;9.00;4.35;;;;;;;21.66;42.81;98769.80;1800609;78;21198;-66
2021/04/30 11:32:27;;;;;;;10.30;4.30;;;;;;;21.77;42.58;98768.34;1777454;80;21174;-65
2021/04/30 11:35:00;;;;;;;5.55;3.60;;;;;;;21.87;41.77;98759.70;1784325;79;20989;-65
2021/04/30 11:37:30;;;;;;;7.33;4.20;;;;;;;21.90;42.04;98760.27;1793289;79;21761;-65
2021/04/30 11:40:00;;;;;;;15.28;4.45;;;;;;;21.91;41.76;98753.48;1800008;79;21043;-65
2021/04/30 11:42:30;;;;;;;6.05;3.72;;;;;;;22.07;42.59;98750.95;1806453;78;21353;-63
2021/04/30 11:44:59;;;;;;;6.87;4.10;;;;;;;22.37;42.25;98741.31;1804760;79;21075;-64
2021/04/30 11:47:35;;;;;;;5.70;3.08;;;;;;;22.78;40.18;98743.86;1804102;79;21026;-64